Time;durP1;ratioP1;P1;durP2;ratioP2;P2;SDS_P1;SDS_P2;PMS_P1;PMS_P2;Temp;Humidity;BMP_temperature;BMP_pressure;BME280_temperature;BME280_humidity;BME280_pressure;Samples;Min_cycle;Max_cycle;Signal;HPM_P1;HPM_P2
2022/03/09 00:01:48;;;;;;;;;54.75;44.75;;;;;-146.03;100.00;60875.16;4994633;28;46194;-83
2022/03/09 00:04:14;;;;;;;;;55.50;45.75;;;;;-146.03;100.00;60875.16;4994876;28;46126;-82
2022/03/09 00:06:39;;;;;;;;;53.00;43.25;;;;;-146.03;100.00;60875.16;4993445;28;45574;-82
2022/03/09 00:09:05;;;;;;;;;55.75;42.00;;;;;-146.03;100.00;60875.16;4994281;28;45674;-83
2022/03/09 00:11:31;;;;;;;;;59.00;43.50;;;;;-146.03;100.00;60875.16;4993584;28;45415;-82
2022/03/09 00:13:56;;;;;;;;;57.75;45.00;;;;;-146.03;100.00;60875.16;4992010;28;45724;-83
2022/03/09 00:16:22;;;;;;;;;58.25;45.00;;;;;-146.03;100.00;60875.16;4993281;28;45473;-83
2022/03/09 00:18:47;;;;;;;;;57.50;44.00;;;;;-146.03;100.00;60875.16;4994653;28;48289;-82
2022/03/09 00:21:13;;;;;;;;;53.25;44.75;;;;;-146.03;100.00;60875.16;4995771;28;45560;-82
2022/03/09 00:23:38;;;;;;;;;53.50;42.00;;;;;-146.03;100.00;60875.16;4994540;28;45482;-82
2022/03/09 00:26:04;;;;;;;;;58.50;43.00;;;;;-146.03;100.00;60875.16;4992557;28;46094;-83
2022/03/09 00:28:29;;;;;;;;;48.75;40.00;;;;;-146.03;100.00;60875.16;4993091;28;45485;-83
2022/03/09 00:30:55;;;;;;;;;60.25;46.75;;;;;-146.03;100.00;60875.16;4993885;28;46928;-83
2022/03/09 00:33:20;;;;;;;;;52.50;43.00;;;;;-146.03;100.00;60875.16;4994603;28;45577;-84
2022/03/09 00:35:45;;;;;;;;;54.00;43.00;;;;;-146.03;100.00;60875.16;4994834;28;45496;-83
2022/03/09 00:38:14;;;;;;;;;54.00;40.25;;;;;-146.03;100.00;60875.16;4994575;28;45489;-83
2022/03/09 00:40:40;;;;;;;;;54.75;45.25;;;;;-146.03;100.00;60875.16;4994267;28;45350;-82
2022/03/09 00:43:05;;;;;;;;;54.75;43.00;;;;;-146.03;100.00;60875.16;4989609;28;47156;-83
2022/03/09 00:45:30;;;;;;;;;55.75;42.75;;;;;-146.03;100.00;60875.16;4991722;28;45695;-83
2022/03/09 00:47:56;;;;;;;;;50.25;41.50;;;;;-146.03;100.00;60875.16;4993639;28;46493;-83
2022/03/09 00:50:21;;;;;;;;;52.25;42.25;;;;;-146.03;100.00;60875.16;4993993;28;46187;-83
2022/03/09 00:52:47;;;;;;;;;53.75;43.25;;;;;-146.03;100.00;60875.16;4991887;28;50764;-83
2022/03/09 00:55:13;;;;;;;;;53.25;42.25;;;;;-146.03;100.00;60875.16;4994101;28;45570;-83
2022/03/09 00:57:39;;;;;;;;;48.00;37.75;;;;;-146.03;100.00;60875.16;4994479;28;45531;-83
2022/03/09 01:00:05;;;;;;;;;54.00;43.75;;;;;-146.03;100.00;60875.16;4993046;28;45523;-82
2022/03/09 01:02:30;;;;;;;;;58.50;44.25;;;;;-146.03;100.00;60875.16;4992188;28;45536;-82
2022/03/09 01:04:56;;;;;;;;;50.50;42.25;;;;;-146.03;100.00;60875.16;4989802;28;45503;-81
2022/03/09 01:07:21;;;;;;;;;53.25;43.75;;;;;-146.03;100.00;60875.16;4986336;28;45469;-82
2022/03/09 01:09:46;;;;;;;;;55.75;43.75;;;;;-146.03;100.00;60875.16;4994809;28;45441;-82
2022/03/09 01:12:12;;;;;;;;;53.75;43.50;;;;;-146.03;100.00;60875.16;4995519;28;48513;-81
2022/03/09 01:14:37;;;;;;;;;51.50;42.25;;;;;-146.03;100.00;60875.16;4993790;28;45690;-82
2022/03/09 01:17:03;;;;;;;;;58.50;45.50;;;;;-146.03;100.00;60875.16;4994577;28;45589;-82
2022/03/09 01:19:28;;;;;;;;;56.75;44.75;;;;;-146.03;100.00;60875.16;4994558;28;45415;-82
2022/03/09 01:21:53;;;;;;;;;57.50;44.00;;;;;-146.03;100.00;60875.16;4987568;28;53090;-82
2022/03/09 01:24:19;;;;;;;;;58.25;45.50;;;;;-146.03;100.00;60875.16;4994917;28;45527;-82
2022/03/09 01:26:44;;;;;;;;;59.50;44.50;;;;;-146.03;100.00;60875.16;4994625;28;45458;-82
2022/03/09 01:29:11;;;;;;;;;56.75;44.00;;;;;-146.03;100.00;60875.16;4989208;28;45488;-82
2022/03/09 01:31:37;;;;;;;;;56.75;44.25;;;;;-146.03;100.00;60875.16;4992358;28;45332;-82
2022/03/09 01:34:03;;;;;;;;;58.00;44.75;;;;;-146.03;100.00;60875.16;4987851;28;45488;-83
2022/03/09 01:36:28;;;;;;;;;60.00;48.00;;;;;-146.03;100.00;60875.16;4992996;28;45465;-83
2022/03/09 01:38:54;;;;;;;;;56.25;45.50;;;;;-146.03;100.00;60875.16;4996991;28;45512;-82
2022/03/09 01:41:19;;;;;;;;;56.25;45.75;;;;;-146.03;100.00;60875.16;4991624;28;46466;-83
2022/03/09 01:43:44;;;;;;;;;60.75;48.00;;;;;-146.03;100.00;60875.16;4992516;28;45504;-83
2022/03/09 01:46:10;;;;;;;;;55.00;45.33;;;;;-146.03;100.00;60875.16;4994370;28;45492;-83
2022/03/09 01:48:36;;;;;;;;;57.00;45.25;;;;;-146.03;100.00;60875.16;4989263;28;46266;-83
2022/03/09 01:51:01;;;;;;;;;57.25;46.00;;;;;-146.03;100.00;60875.16;4989652;28;45553;-83
2022/03/09 01:53:27;;;;;;;;;57.50;46.75;;;;;-146.03;100.00;60875.16;4994480;28;45552;-83
2022/03/09 01:55:53;;;;;;;;;57.50;46.50;;;;;-146.03;100.00;60875.16;4993962;28;49499;-83
2022/03/09 01:58:18;;;;;;;;;58.00;46.33;;;;;-146.03;100.00;60875.16;4993788;28;45533;-84
2022/03/09 02:00:43;;;;;;;;;60.67;49.00;;;;;-146.03;100.00;60875.16;4992314;28;47004;-83
2022/03/09 02:03:09;;;;;;;;;65.00;53.33;;;;;-146.03;100.00;60875.16;4991057;28;45536;-83
2022/03/09 02:05:35;;;;;;;;;61.67;50.67;;;;;-146.03;100.00;60875.16;4990910;28;45408;-82
2022/03/09 02:10:46;;;;;;;;;67.67;53.00;;;;;-146.03;100.00;60875.16;4994363;28;45835;-82
2022/03/09 02:13:11;;;;;;;;;68.00;53.33;;;;;-146.03;100.00;60875.16;4993458;28;45644;-81
2022/03/09 02:15:37;;;;;;;;;64.67;49.33;;;;;-146.03;100.00;60875.16;4986975;28;45703;-81
2022/03/09 02:18:03;;;;;;;;;56.33;47.00;;;;;-146.03;100.00;60875.16;4992367;28;45565;-83
2022/03/09 02:20:28;;;;;;;;;61.00;49.00;;;;;-146.03;100.00;60875.16;5001284;28;45446;-82
2022/03/09 02:22:54;;;;;;;;;62.00;49.67;;;;;-146.03;100.00;60875.16;4999087;28;45539;-82
2022/03/09 02:25:19;;;;;;;;;61.50;48.25;;;;;-146.03;100.00;60875.16;4999649;28;45614;-82
2022/03/09 02:27:45;;;;;;;;;58.00;47.00;;;;;-146.03;100.00;60875.16;4999745;28;45479;-82
2022/03/09 02:30:14;;;;;;;;;65.67;50.67;;;;;-146.03;100.00;60875.16;5002418;28;45853;-82
2022/03/09 02:32:41;;;;;;;;;60.00;48.67;;;;;-146.03;100.00;60875.16;4998168;28;45419;-82
2022/03/09 02:35:08;;;;;;;;;63.67;47.33;;;;;-146.03;100.00;60875.16;5000090;28;45566;-82
2022/03/09 02:37:34;;;;;;;;;58.00;45.75;;;;;-146.03;100.00;60875.16;4988865;28;45529;-82
2022/03/09 02:39:59;;;;;;;;;60.67;47.00;;;;;-146.03;100.00;60875.16;4999581;28;45446;-82
2022/03/09 02:42:24;;;;;;;;;60.00;47.25;;;;;-146.03;100.00;60875.16;4999837;28;45426;-82
2022/03/09 02:44:50;;;;;;;;;56.00;45.00;;;;;-146.03;100.00;60875.16;5000586;28;45509;-82
2022/03/09 02:47:15;;;;;;;;;65.00;49.67;;;;;-146.03;100.00;60875.16;4999949;28;45435;-82
2022/03/09 02:49:40;;;;;;;;;63.00;49.00;;;;;-146.03;100.00;60875.16;4999491;28;45544;-82
2022/03/09 02:52:06;;;;;;;;;65.00;50.67;;;;;-146.03;100.00;60875.16;5000036;28;46453;-83
2022/03/09 02:54:31;;;;;;;;;60.00;48.00;;;;;-146.03;100.00;60875.16;4987013;28;45559;-82
2022/03/09 02:56:57;;;;;;;;;60.67;48.00;;;;;-146.03;100.00;60875.16;5000109;28;45450;-81
2022/03/09 02:59:22;;;;;;;;;60.33;45.67;;;;;-146.03;100.00;60875.16;4999313;28;47409;-82
2022/03/09 03:01:48;;;;;;;;;58.00;47.33;;;;;-146.03;100.00;60875.16;4996588;28;45267;-82
2022/03/09 03:04:14;;;;;;;;;63.33;48.33;;;;;-146.03;100.00;60875.16;4993995;28;45669;-82
2022/03/09 03:06:39;;;;;;;;;63.67;49.00;;;;;-146.03;100.00;60875.16;4992317;28;45613;-82
2022/03/09 03:09:04;;;;;;;;;63.00;49.00;;;;;-146.03;100.00;60875.16;4998742;28;45322;-83
2022/03/09 03:11:30;;;;;;;;;62.33;51.00;;;;;-146.03;100.00;60875.16;4999091;28;45526;-82
2022/03/09 03:13:55;;;;;;;;;70.67;54.00;;;;;-146.03;100.00;60875.16;4996180;28;45517;-82
2022/03/09 03:16:20;;;;;;;;;64.00;51.00;;;;;-146.03;100.00;60875.16;4999462;28;45584;-83
2022/03/09 03:18:46;;;;;;;;;63.00;48.67;;;;;-146.03;100.00;60875.16;4999402;28;46362;-82
2022/03/09 03:21:11;;;;;;;;;56.33;44.33;;;;;-146.03;100.00;60875.16;4999147;28;45492;-82
2022/03/09 03:23:37;;;;;;;;;61.00;48.33;;;;;-146.03;100.00;60875.16;4996243;28;45504;-82
2022/03/09 03:26:05;;;;;;;;;62.67;51.67;;;;;-146.03;100.00;60875.16;4999341;28;45973;-83
2022/03/09 03:28:31;;;;;;;;;61.67;49.33;;;;;-146.03;100.00;60875.16;4993022;28;46372;-82
2022/03/09 03:30:57;;;;;;;;;58.67;48.33;;;;;-146.03;100.00;60875.16;4996054;28;45393;-82
2022/03/09 03:33:22;;;;;;;;;63.33;50.67;;;;;-146.03;100.00;60875.16;4988261;28;45465;-83
2022/03/09 03:35:49;;;;;;;;;62.00;49.00;;;;;-146.03;100.00;60875.16;4996772;28;46130;-83
2022/03/09 03:38:14;;;;;;;;;60.33;49.33;;;;;-146.03;100.00;60875.16;4990539;28;47036;-83
2022/03/09 03:40:40;;;;;;;;;64.00;50.00;;;;;-146.03;100.00;60875.16;4985686;28;45406;-83
2022/03/09 03:43:06;;;;;;;;;62.33;49.00;;;;;-146.03;100.00;60875.16;4995949;28;45478;-83
2022/03/09 03:45:32;;;;;;;;;60.00;49.00;;;;;-146.03;100.00;60875.16;4996796;28;45561;-82
2022/03/09 03:47:57;;;;;;;;;60.00;49.33;;;;;-146.03;100.00;60875.16;5001292;28;45414;-84
2022/03/09 03:50:23;;;;;;;;;63.67;50.33;;;;;-146.03;100.00;60875.16;4997966;28;45541;-83
2022/03/09 03:52:49;;;;;;;;;64.33;52.00;;;;;-146.03;100.00;60875.16;5012131;28;45484;-83
2022/03/09 03:55:14;;;;;;;;;64.00;50.67;;;;;-146.03;100.00;60875.16;4998647;28;45413;-83
2022/03/09 03:57:40;;;;;;;;;61.33;49.00;;;;;-146.03;100.00;60875.16;4997610;28;45905;-84
2022/03/09 04:00:09;;;;;;;;;60.67;49.00;;;;;-146.03;100.00;60875.16;4996081;28;46202;-83
2022/03/09 04:02:34;;;;;;;;;61.33;49.00;;;;;-146.03;100.00;60875.16;4995530;28;45704;-83
2022/03/09 04:05:00;;;;;;;;;63.00;49.33;;;;;-146.03;100.00;60875.16;4996618;28;45678;-84
2022/03/09 04:07:26;;;;;;;;;67.33;52.67;;;;;-146.03;100.00;60875.16;4995190;28;48417;-83
2022/03/09 04:09:51;;;;;;;;;66.67;50.00;;;;;-146.03;100.00;60875.16;4995063;28;46461;-83
2022/03/09 04:12:17;;;;;;;;;59.67;49.00;;;;;-146.03;100.00;60875.16;4997397;28;45541;-83
2022/03/09 04:14:42;;;;;;;;;64.00;49.00;;;;;-146.03;100.00;60875.16;4996391;28;45501;-83
2022/03/09 04:17:08;;;;;;;;;60.33;48.33;;;;;-146.03;100.00;60875.16;4996419;28;46615;-83
2022/03/09 04:19:33;;;;;;;;;67.00;51.67;;;;;-146.03;100.00;60875.16;4996602;28;45464;-83
2022/03/09 04:21:58;;;;;;;;;64.33;49.33;;;;;-146.03;100.00;60875.16;4996748;28;45491;-83
2022/03/09 04:24:24;;;;;;;;;61.00;46.33;;;;;-146.03;100.00;60875.16;4996614;28;45369;-83
2022/03/09 04:26:50;;;;;;;;;53.67;42.67;;;;;-146.03;100.00;60875.16;4996711;28;47143;-83
2022/03/09 04:29:15;;;;;;;;;62.33;50.00;;;;;-146.03;100.00;60875.16;4995029;28;45555;-83
2022/03/09 04:31:41;;;;;;;;;65.67;51.33;;;;;-146.03;100.00;60875.16;4996627;28;46111;-83
2022/03/09 04:34:06;;;;;;;;;58.67;48.33;;;;;-146.03;100.00;60875.16;4996453;28;45443;-83
2022/03/09 04:36:32;;;;;;;;;61.33;49.33;;;;;-146.03;100.00;60875.16;4996297;28;49246;-83
2022/03/09 04:38:57;;;;;;;;;65.33;48.67;;;;;-146.03;100.00;60875.16;4996389;28;45394;-83
2022/03/09 04:41:23;;;;;;;;;59.33;47.33;;;;;-146.03;100.00;60875.16;4995421;28;45916;-83
2022/03/09 04:43:49;;;;;;;;;56.33;46.00;;;;;-146.03;100.00;60875.16;4995751;28;45520;-84
2022/03/09 04:46:15;;;;;;;;;58.67;48.67;;;;;-146.03;100.00;60875.16;4996274;28;45435;-84
2022/03/09 04:48:41;;;;;;;;;56.33;44.67;;;;;-146.03;100.00;60875.16;4994828;28;45303;-83
2022/03/09 04:51:06;;;;;;;;;54.00;44.33;;;;;-146.03;100.00;60875.16;4996579;28;45414;-83
2022/03/09 04:53:32;;;;;;;;;53.33;44.33;;;;;-146.03;100.00;60875.16;4995858;28;45454;-83
2022/03/09 04:55:57;;;;;;;;;58.00;45.75;;;;;-146.03;100.00;60875.16;4995781;28;46587;-83
2022/03/09 04:58:24;;;;;;;;;57.00;44.67;;;;;-146.03;100.00;60875.16;4995767;28;45422;-83
2022/03/09 05:00:50;;;;;;;;;56.00;45.00;;;;;-146.03;100.00;60875.16;4996051;28;45378;-83
2022/03/09 05:03:15;;;;;;;;;55.00;43.25;;;;;-146.03;100.00;60875.16;4996606;28;45247;-83
2022/03/09 05:05:41;;;;;;;;;53.00;43.75;;;;;-146.03;100.00;60875.16;4995646;28;45350;-83
2022/03/09 05:08:06;;;;;;;;;59.25;45.75;;;;;-146.03;100.00;60875.16;4995231;28;45497;-83
2022/03/09 05:10:32;;;;;;;;;58.00;46.00;;;;;-146.03;100.00;60875.16;4995704;28;45481;-83
2022/03/09 05:12:57;;;;;;;;;56.33;45.00;;;;;-146.03;100.00;60875.16;4995968;28;45482;-83
2022/03/09 05:15:22;;;;;;;;;52.50;43.50;;;;;-146.03;100.00;60875.16;4995351;28;56718;-83
2022/03/09 05:17:47;;;;;;;;;53.25;43.50;;;;;-146.03;100.00;60875.16;4994453;28;45523;-83
2022/03/09 05:20:15;;;;;;;;;55.25;46.00;;;;;-146.03;100.00;60875.16;4995631;28;45442;-83
2022/03/09 05:22:41;;;;;;;;;58.67;46.33;;;;;-146.03;100.00;60875.16;4995272;28;45473;-83
2022/03/09 05:25:07;;;;;;;;;57.67;44.00;;;;;-146.03;100.00;60875.16;4995414;28;45652;-83
2022/03/09 05:27:32;;;;;;;;;57.33;45.33;;;;;-146.03;100.00;60875.16;4995705;28;45383;-83
2022/03/09 05:29:58;;;;;;;;;57.67;46.00;;;;;-146.03;100.00;60875.16;4995904;28;45319;-83
2022/03/09 05:32:23;;;;;;;;;59.67;46.00;;;;;-146.03;100.00;60875.16;4995328;28;45438;-83
2022/03/09 05:34:50;;;;;;;;;54.67;43.33;;;;;-146.03;100.00;60875.16;4995122;28;46162;-83
2022/03/09 05:37:16;;;;;;;;;54.50;41.75;;;;;-146.03;100.00;60875.16;4994987;28;45319;-83
2022/03/09 05:39:41;;;;;;;;;54.33;42.33;;;;;-146.03;100.00;60875.16;4995223;28;45462;-83
2022/03/09 05:42:07;;;;;;;;;53.00;45.00;;;;;-146.03;100.00;60875.16;4995969;28;45424;-83
2022/03/09 05:44:32;;;;;;;;;56.50;43.25;;;;;-146.03;100.00;60875.16;4990957;28;48475;-83
2022/03/09 05:46:58;;;;;;;;;54.25;42.25;;;;;-146.03;100.00;60875.16;4991016;28;45525;-83
2022/03/09 05:49:23;;;;;;;;;50.50;42.50;;;;;-146.03;100.00;60875.16;4994785;28;45520;-84
2022/03/09 05:51:49;;;;;;;;;54.00;44.50;;;;;-146.03;100.00;60875.16;4994500;28;45446;-83
2022/03/09 05:54:15;;;;;;;;;48.25;40.25;;;;;-146.03;100.00;60875.16;4990910;28;45450;-83
2022/03/09 05:56:41;;;;;;;;;52.25;42.25;;;;;-146.03;100.00;60875.16;4994875;28;45439;-83
2022/03/09 05:59:06;;;;;;;;;56.50;43.00;;;;;-146.03;100.00;60875.16;4994919;28;45456;-83
2022/03/09 06:01:32;;;;;;;;;52.25;43.00;;;;;-146.03;100.00;60875.16;4995092;28;45260;-83
2022/03/09 06:03:57;;;;;;;;;48.25;39.00;;;;;-146.03;100.00;60875.16;4994617;28;46380;-83
2022/03/09 06:06:22;;;;;;;;;49.50;42.00;;;;;-146.03;100.00;60875.16;4993970;28;45319;-83
2022/03/09 06:08:48;;;;;;;;;49.75;38.50;;;;;-146.03;100.00;60875.16;4995320;28;45393;-83
2022/03/09 06:11:13;;;;;;;;;50.75;42.50;;;;;-146.03;100.00;60875.16;4994509;28;46990;-83
2022/03/09 06:13:38;;;;;;;;;48.50;37.75;;;;;-146.03;100.00;60875.16;4994612;28;52319;-83
2022/03/09 06:16:04;;;;;;;;;48.75;40.50;;;;;-146.03;100.00;60875.16;4994828;28;45389;-83
2022/03/09 06:18:29;;;;;;;;;47.25;37.75;;;;;-146.03;100.00;60875.16;4994666;28;45681;-83
2022/03/09 06:20:55;;;;;;;;;47.75;39.50;;;;;-146.03;100.00;60875.16;4995269;28;45255;-83
2022/03/09 06:23:20;;;;;;;;;49.00;38.75;;;;;-146.03;100.00;60875.16;4993168;28;45359;-83
2022/03/09 06:25:45;;;;;;;;;52.00;40.75;;;;;-146.03;100.00;60875.16;4994514;28;45426;-83
2022/03/09 06:28:11;;;;;;;;;47.75;41.00;;;;;-146.03;100.00;60875.16;4993508;28;45515;-83
2022/03/09 06:30:36;;;;;;;;;52.25;42.50;;;;;-146.03;100.00;60875.16;4994755;28;45323;-83
2022/03/09 06:33:01;;;;;;;;;50.00;39.50;;;;;-146.03;100.00;60875.16;4994693;28;45386;-83
2022/03/09 06:35:27;;;;;;;;;50.50;39.00;;;;;-146.03;100.00;60875.16;4994507;28;45488;-83
2022/03/09 06:37:53;;;;;;;;;52.00;41.75;;;;;-146.03;100.00;60875.16;4993100;28;45377;-83
2022/03/09 06:40:18;;;;;;;;;52.00;40.50;;;;;-146.03;100.00;60875.16;4991765;28;45498;-83
2022/03/09 06:42:44;;;;;;;;;57.25;44.00;;;;;-146.03;100.00;60875.16;4994268;28;46137;-83
2022/03/09 06:45:09;;;;;;;;;53.50;43.50;;;;;-146.03;100.00;60875.16;4994839;28;45405;-83
2022/03/09 06:47:38;;;;;;;;;55.75;40.50;;;;;-146.03;100.00;60875.16;4994142;28;45349;-83
2022/03/09 06:50:05;;;;;;;;;49.50;41.25;;;;;-146.03;100.00;60875.16;4992376;28;45466;-83
2022/03/09 06:52:30;;;;;;;;;53.75;42.50;;;;;-146.03;100.00;60875.16;4993626;28;46612;-83
2022/03/09 06:55:02;;;;;;;;;49.75;41.00;;;;;-146.03;100.00;60875.16;4992059;28;45760;-83
2022/03/09 06:57:28;;;;;;;;;54.25;42.00;;;;;-146.03;100.00;60875.16;4992339;28;45514;-83
2022/03/09 06:59:53;;;;;;;;;55.50;43.50;;;;;-146.03;100.00;60875.16;4990407;28;45389;-83
2022/03/09 07:02:19;;;;;;;;;45.00;38.50;;;;;-146.03;100.00;60875.16;4992893;28;52680;-83
2022/03/09 07:04:44;;;;;;;;;51.50;39.75;;;;;-146.03;100.00;60875.16;4993289;28;45508;-83
2022/03/09 07:07:09;;;;;;;;;54.75;42.25;;;;;-146.03;100.00;60875.16;4997151;28;45668;-83
2022/03/09 07:09:35;;;;;;;;;48.75;41.00;;;;;-146.03;100.00;60875.16;4997305;28;45405;-83
2022/03/09 07:12:00;;;;;;;;;54.67;45.33;;;;;-146.03;100.00;60875.16;4999357;28;46208;-83
2022/03/09 07:14:25;;;;;;;;;54.00;42.25;;;;;-146.03;100.00;60875.16;4996469;28;45493;-83
2022/03/09 07:16:51;;;;;;;;;60.33;47.67;;;;;-146.03;100.00;60875.16;4996133;28;45624;-83
2022/03/09 07:19:16;;;;;;;;;56.75;45.50;;;;;-146.03;100.00;60875.16;4996417;28;49231;-83
2022/03/09 07:21:41;;;;;;;;;55.00;43.50;;;;;-146.03;100.00;60875.16;4996933;28;45402;-83
2022/03/09 07:24:07;;;;;;;;;49.00;38.25;;;;;-146.03;100.00;60875.16;5001970;28;45378;-82
2022/03/09 07:26:33;;;;;;;;;50.50;38.75;;;;;-146.03;100.00;60875.16;4992856;28;45575;-82
2022/03/09 07:28:59;;;;;;;;;53.00;42.50;;;;;-146.03;100.00;60875.16;4996775;28;45625;-83
2022/03/09 07:31:24;;;;;;;;;62.67;47.67;;;;;-146.03;100.00;60875.16;4995910;28;45536;-83
2022/03/09 07:33:49;;;;;;;;;54.33;43.67;;;;;-146.03;100.00;60875.16;4996285;28;45534;-82
2022/03/09 07:36:15;;;;;;;;;53.67;43.00;;;;;-146.03;100.00;60875.16;4995788;28;45327;-83
2022/03/09 07:38:40;;;;;;;;;45.75;39.50;;;;;-146.03;100.00;60875.16;4995983;28;45433;-82
2022/03/09 07:41:06;;;;;;;;;56.67;43.67;;;;;-146.03;100.00;60875.16;4996938;28;45608;-83
2022/03/09 07:43:31;;;;;;;;;50.67;42.67;;;;;-146.03;100.00;60875.16;5010079;28;45572;-83
2022/03/09 07:45:57;;;;;;;;;55.00;43.75;;;;;-146.03;100.00;60875.16;4998166;28;45454;-82
2022/03/09 07:48:22;;;;;;;;;46.50;40.00;;;;;-146.03;100.00;60875.16;4996830;28;45425;-83
2022/03/09 07:50:48;;;;;;;;;50.00;42.50;;;;;-146.03;100.00;60875.16;4995358;28;46361;-84
2022/03/09 07:53:13;;;;;;;;;51.00;40.25;;;;;-146.03;100.00;60875.16;4991071;28;45461;-84
2022/03/09 07:55:39;;;;;;;;;50.75;40.00;;;;;-146.03;100.00;60875.16;4996675;28;45511;-83
2022/03/09 07:58:04;;;;;;;;;56.50;45.50;;;;;-146.03;100.00;60875.16;4996207;28;45493;-83
2022/03/09 08:00:30;;;;;;;;;49.75;41.25;;;;;-146.03;100.00;60875.16;4993904;28;47229;-84
2022/03/09 08:02:55;;;;;;;;;47.50;38.75;;;;;-146.03;100.00;60875.16;4995709;28;45497;-85
2022/03/09 08:05:21;;;;;;;;;49.50;36.00;;;;;-146.03;100.00;60875.16;4994365;28;45426;-82
2022/03/09 08:07:46;;;;;;;;;45.75;38.25;;;;;-146.03;100.00;60875.16;4994961;28;45552;-83
2022/03/09 08:10:12;;;;;;;;;49.50;39.25;;;;;-146.03;100.00;60875.16;4995212;28;45558;-85
2022/03/09 08:12:38;;;;;;;;;50.00;38.75;;;;;-146.03;100.00;60875.16;4993636;28;45967;-83
2022/03/09 08:15:05;;;;;;;;;45.25;38.25;;;;;-146.03;100.00;60875.16;4993712;28;45492;-83
2022/03/09 08:17:30;;;;;;;;;48.50;39.25;;;;;-146.03;100.00;60875.16;4992514;28;45484;-83
2022/03/09 08:19:56;;;;;;;;;37.75;36.00;;;;;-146.03;100.00;60875.16;4992578;28;46273;-83
2022/03/09 08:22:22;;;;;;;;;38.00;35.75;;;;;-146.03;100.00;60875.16;4994023;28;45433;-84
2022/03/09 08:24:47;;;;;;;;;38.75;32.00;;;;;-146.03;100.00;60875.16;4993563;28;45350;-83
2022/03/09 08:27:13;;;;;;;;;38.75;35.25;;;;;-146.03;100.00;60875.16;4994164;28;45638;-84
2022/03/09 08:29:39;;;;;;;;;40.00;34.00;;;;;-146.03;100.00;60875.16;4995292;28;45432;-83
2022/03/09 08:32:05;;;;;;;;;46.50;38.50;;;;;-146.03;100.00;60875.16;4998415;28;45561;-83
2022/03/09 08:34:30;;;;;;;;;46.50;37.75;;;;;-146.03;100.00;60875.16;4995282;28;45382;-83
2022/03/09 08:36:55;;;;;;;;;41.75;35.75;;;;;-146.03;100.00;60875.16;4994267;28;45334;-84
2022/03/09 08:39:21;;;;;;;;;44.25;37.75;;;;;-146.03;100.00;60875.16;4994797;28;46189;-84
2022/03/09 08:41:46;;;;;;;;;44.50;36.00;;;;;-146.03;100.00;60875.16;4994418;28;45520;-84
2022/03/09 08:44:11;;;;;;;;;43.75;34.25;;;;;-146.03;100.00;60875.16;4993539;28;45845;-84
2022/03/09 08:46:37;;;;;;;;;47.75;38.75;;;;;-146.03;100.00;60875.16;4995388;28;45528;-83
2022/03/09 08:49:03;;;;;;;;;39.50;34.25;;;;;-146.03;100.00;60875.16;4993100;28;48167;-83
2022/03/09 08:51:28;;;;;;;;;37.75;33.75;;;;;-146.03;100.00;60875.16;4995314;28;45437;-84
2022/03/09 08:53:53;;;;;;;;;40.25;35.00;;;;;-146.03;100.00;60875.16;4996422;28;45398;-82
2022/03/09 08:56:20;;;;;;;;;39.00;35.00;;;;;-146.03;100.00;60875.16;4993613;28;48208;-83
2022/03/09 08:58:46;;;;;;;;;39.75;36.00;;;;;-146.03;100.00;60875.16;4992440;28;46313;-82
2022/03/09 09:01:11;;;;;;;;;42.75;34.50;;;;;-146.03;100.00;60875.16;4992672;28;45512;-83
2022/03/09 09:03:37;;;;;;;;;39.25;34.50;;;;;-146.03;100.00;60875.16;4993697;28;45720;-82
2022/03/09 09:06:02;;;;;;;;;44.50;35.50;;;;;-146.03;100.00;60875.16;5010608;28;45335;-82
2022/03/09 09:08:28;;;;;;;;;37.25;32.75;;;;;-146.03;100.00;60875.16;4993119;28;47603;-83
2022/03/09 09:10:53;;;;;;;;;37.50;33.50;;;;;-146.03;100.00;60875.16;4988237;28;45908;-82
2022/03/09 09:13:19;;;;;;;;;34.50;32.25;;;;;-146.03;100.00;60875.16;4992189;28;45489;-82
2022/03/09 09:15:45;;;;;;;;;38.00;34.75;;;;;-146.03;100.00;60875.16;4994206;28;45444;-82
2022/03/09 09:18:10;;;;;;;;;32.75;31.50;;;;;-146.03;100.00;60875.16;4991447;28;45529;-82
2022/03/09 09:20:36;;;;;;;;;33.75;29.50;;;;;-146.03;100.00;60875.16;4990383;28;45490;-83
2022/03/09 09:23:02;;;;;;;;;35.50;34.00;;;;;-146.03;100.00;60875.16;4990461;28;45426;-82
2022/03/09 09:25:28;;;;;;;;;31.50;31.50;;;;;-146.03;100.00;60875.16;4994565;28;45402;-82
2022/03/09 09:27:55;;;;;;;;;30.75;28.00;;;;;-146.03;100.00;60875.16;4993325;28;46151;-83
2022/03/09 09:30:21;;;;;;;;;27.75;23.75;;;;;-146.03;100.00;60875.16;4991107;28;45419;-83
2022/03/09 09:32:47;;;;;;;;;28.50;27.25;;;;;-146.03;100.00;60875.16;4988754;28;45457;-83
2022/03/09 09:35:14;;;;;;;;;32.00;31.25;;;;;-146.03;100.00;60875.16;4992997;28;45626;-82
2022/03/09 09:37:40;;;;;;;;;23.50;21.75;;;;;-146.03;100.00;60875.16;4987150;28;45601;-83
2022/03/09 09:40:07;;;;;;;;;25.25;25.25;;;;;-146.03;100.00;60875.16;4993921;28;45593;-83
2022/03/09 09:42:33;;;;;;;;;20.25;19.25;;;;;-146.03;100.00;60875.16;4992632;28;45525;-83
2022/03/09 09:45:00;;;;;;;;;22.00;20.75;;;;;-146.03;100.00;60875.16;4995149;28;45488;-83
2022/03/09 09:47:27;;;;;;;;;20.00;19.00;;;;;-146.03;100.00;60875.16;4990636;28;47356;-83
2022/03/09 09:49:53;;;;;;;;;25.75;22.25;;;;;-146.03;100.00;60875.16;4994429;28;47771;-81
2022/03/09 09:52:19;;;;;;;;;20.50;18.75;;;;;-146.03;100.00;60875.16;4994148;28;45636;-82
2022/03/09 09:54:49;;;;;;;;;19.75;19.25;;;;;-146.03;100.00;60875.16;4994922;28;45713;-82
2022/03/09 09:57:15;;;;;;;;;18.75;18.00;;;;;-146.03;100.00;60875.16;4994661;28;46263;-82
2022/03/09 09:59:42;;;;;;;;;16.25;16.25;;;;;-146.03;100.00;60875.16;4994459;28;45750;-82
2022/03/09 10:02:08;;;;;;;;;10.75;9.00;;;;;-146.03;100.00;60875.16;4993487;28;45295;-84
2022/03/09 10:04:33;;;;;;;;;16.00;14.75;;;;;-146.03;100.00;60875.16;5000798;28;45291;-82
2022/03/09 10:06:59;;;;;;;;;15.50;15.25;;;;;-146.03;100.00;60875.16;4993202;28;47213;-82
2022/03/09 10:09:34;;;;;;;;;13.00;13.00;;;;;-146.03;100.00;60875.16;4994839;28;45374;-82
2022/03/09 10:11:59;;;;;;;;;17.00;14.50;;;;;-146.03;100.00;60875.16;4994634;28;45488;-84
2022/03/09 10:14:42;;;;;;;;;14.75;14.75;;;;;-146.03;100.00;60875.16;4994428;28;45469;-82
2022/03/09 10:17:13;;;;;;;;;17.00;17.00;;;;;-146.03;100.00;60875.16;4994293;28;46093;-83
2022/03/09 10:19:42;;;;;;;;;15.50;15.25;;;;;-146.03;100.00;60875.16;4994371;28;45341;-82
2022/03/09 10:22:45;;;;;;;;;20.00;19.00;;;;;-146.03;100.00;60875.16;4985903;28;45493;-84
2022/03/09 10:25:10;;;;;;;;;16.25;16.25;;;;;-146.03;100.00;60875.16;4981268;28;45776;-83
2022/03/09 10:27:38;;;;;;;;;21.00;20.00;;;;;-146.03;100.00;60875.16;4994291;28;45468;-84
2022/03/09 10:30:08;;;;;;;;;23.50;21.50;;;;;-146.03;100.00;60875.16;4994590;28;45464;-82
2022/03/09 10:32:56;;;;;;;;;20.25;20.25;;;;;-146.03;100.00;60875.16;4993446;28;45351;-84
2022/03/09 10:35:30;;;;;;;;;21.75;19.50;;;;;-146.03;100.00;60875.16;4993381;28;45621;-86
2022/03/09 10:38:01;;;;;;;;;21.75;18.50;;;;;-146.03;100.00;60875.16;4994173;28;46860;-85
2022/03/09 10:40:28;;;;;;;;;22.75;19.25;;;;;-146.03;100.00;60875.16;4994436;28;45373;-85
2022/03/09 10:43:18;;;;;;;;;16.25;16.25;;;;;-146.03;100.00;60875.16;4997735;28;45561;-85
2022/03/09 10:46:12;;;;;;;;;18.25;15.00;;;;;-146.03;100.00;60875.16;4978592;28;45335;-85
2022/03/09 10:49:00;;;;;;;;;14.00;14.00;;;;;-146.03;100.00;60875.16;4995300;28;48248;-85
2022/03/09 10:51:43;;;;;;;;;17.50;16.00;;;;;-146.03;100.00;60875.16;4995724;28;45621;-85
2022/03/09 10:54:12;;;;;;;;;14.50;13.50;;;;;-146.03;100.00;60875.16;4996929;28;45504;-87